Time;durP1;ratioP1;P1;durP2;ratioP2;P2;SDS_P1;SDS_P2;PMS_P1;PMS_P2;Temp;Humidity;BMP_temperature;BMP_pressure;BME280_temperature;BME280_humidity;BME280_pressure;Samples;Min_cycle;Max_cycle;Signal;HPM_P1;HPM_P2
2023/01/24 00:01:20;;;;;;;12.68;7.00;;;4.50;95.50;;;;;;4967515;28;20038;-65
2023/01/24 00:03:46;;;;;;;14.32;8.65;;;4.40;95.30;;;;;;4970685;28;20117;-66
2023/01/24 00:06:11;;;;;;;16.45;8.38;;;4.40;95.60;;;;;;4968399;28;20101;-66
2023/01/24 00:08:37;;;;;;;16.33;8.60;;;4.40;95.50;;;;;;4965534;28;20846;-65
2023/01/24 00:11:06;;;;;;;14.00;7.30;;;4.50;95.50;;;;;;4962684;28;20062;-65
2023/01/24 00:13:33;;;;;;;15.30;7.97;;;4.40;95.40;;;;;;4969244;28;20101;-64
2023/01/24 00:16:08;;;;;;;14.80;8.25;;;4.50;95.60;;;;;;4971700;28;20116;-64
2023/01/24 00:18:34;;;;;;;18.27;10.23;;;4.40;95.40;;;;;;4972392;28;20063;-65
2023/01/24 00:21:02;;;;;;;13.68;7.55;;;4.50;95.30;;;;;;4971632;28;20114;-65
2023/01/24 00:23:28;;;;;;;14.60;7.88;;;4.40;95.20;;;;;;4974655;28;20030;-65
2023/01/24 00:25:54;;;;;;;17.33;8.43;;;4.50;95.30;;;;;;4968289;28;20093;-64
2023/01/24 00:28:19;;;;;;;16.23;8.65;;;4.40;95.00;;;;;;4969027;28;20046;-61
2023/01/24 00:30:45;;;;;;;12.55;7.57;;;4.40;95.10;;;;;;4960523;28;20082;-61
2023/01/24 00:33:11;;;;;;;14.30;7.82;;;4.40;95.30;;;;;;4974609;28;20049;-61
2023/01/24 00:35:37;;;;;;;16.63;7.97;;;4.40;95.50;;;;;;4974204;28;20086;-61
2023/01/24 00:38:03;;;;;;;14.43;8.10;;;4.30;95.60;;;;;;4976667;28;20038;-61
2023/01/24 00:40:29;;;;;;;13.05;7.53;;;4.30;95.70;;;;;;4975627;28;20042;-61
2023/01/24 00:42:55;;;;;;;14.80;8.18;;;4.40;95.50;;;;;;4954978;28;20146;-62
2023/01/24 00:45:21;;;;;;;17.00;7.90;;;4.40;95.70;;;;;;4957033;28;20402;-62
2023/01/24 00:47:47;;;;;;;15.50;8.05;;;4.40;95.70;;;;;;4961980;28;20144;-62
2023/01/24 00:50:13;;;;;;;19.05;9.43;;;4.30;95.80;;;;;;4956980;28;20830;-61
2023/01/24 00:52:39;;;;;;;14.80;8.60;;;4.40;95.80;;;;;;4970595;28;20514;-61
2023/01/24 00:55:05;;;;;;;17.77;8.82;;;4.40;95.60;;;;;;4972400;28;20046;-61
2023/01/24 00:57:30;;;;;;;18.50;8.52;;;4.40;95.60;;;;;;4976242;28;20027;-62
2023/01/24 00:59:56;;;;;;;14.48;8.20;;;4.30;95.70;;;;;;4975591;28;20041;-61
2023/01/24 01:02:22;;;;;;;15.55;9.23;;;4.40;95.40;;;;;;4976293;28;20076;-61
2023/01/24 01:04:48;;;;;;;15.82;8.30;;;4.30;95.30;;;;;;4962870;28;20069;-61
2023/01/24 01:07:14;;;;;;;17.75;8.13;;;4.30;95.40;;;;;;4974045;28;20065;-62
2023/01/24 01:09:39;;;;;;;16.23;9.38;;;4.30;95.40;;;;;;4964342;28;20392;-61
2023/01/24 01:12:05;;;;;;;17.33;9.40;;;4.30;95.50;;;;;;4954444;28;20053;-62
2023/01/24 01:14:31;;;;;;;15.88;9.05;;;4.30;95.50;;;;;;4956395;28;20674;-61
2023/01/24 01:16:57;;;;;;;14.00;7.53;;;4.30;95.30;;;;;;4975444;28;20108;-61
2023/01/24 01:19:23;;;;;;;18.60;7.90;;;4.30;95.50;;;;;;4976802;28;20334;-61
2023/01/24 01:21:49;;;;;;;19.75;10.23;;;4.30;95.50;;;;;;4961014;28;20045;-60
2023/01/24 01:24:15;;;;;;;16.77;8.27;;;4.30;95.50;;;;;;4972951;28;20080;-62
2023/01/24 01:26:41;;;;;;;19.85;9.10;;;4.30;95.30;;;;;;4976034;28;20057;-62
2023/01/24 01:29:07;;;;;;;19.42;8.88;;;4.30;95.40;;;;;;4952955;28;20494;-61
2023/01/24 01:31:32;;;;;;;21.35;9.68;;;4.30;95.30;;;;;;4952307;28;20596;-61
2023/01/24 01:34:00;;;;;;;18.30;9.52;;;4.30;95.30;;;;;;4960935;28;20022;-61
2023/01/24 01:36:26;;;;;;;21.75;9.50;;;4.20;95.40;;;;;;4948983;28;20043;-61
2023/01/24 01:38:53;;;;;;;24.08;10.98;;;4.20;95.30;;;;;;4971417;28;20110;-59
2023/01/24 01:41:19;;;;;;;17.77;9.93;;;4.20;95.30;;;;;;4959435;28;20066;-62
2023/01/24 01:46:46;;;;;;;17.95;9.40;;;4.20;95.20;;;;;;4974483;28;20045;-62
2023/01/24 01:49:20;;;;;;;18.17;9.55;;;4.30;95.40;;;;;;4977837;28;20157;-62
2023/01/24 01:51:50;;;;;;;18.67;9.07;;;4.20;95.00;;;;;;4961689;28;20042;-62
2023/01/24 01:54:21;;;;;;;20.52;9.65;;;4.20;95.00;;;;;;4974748;28;20042;-61
2023/01/24 01:56:52;;;;;;;17.63;10.10;;;4.20;95.10;;;;;;4973786;28;20035;-62
2023/01/24 01:59:32;;;;;;;20.50;10.38;;;4.20;95.00;;;;;;4955787;28;20890;-62
2023/01/24 02:02:01;;;;;;;18.83;9.60;;;4.30;94.90;;;;;;4963562;28;20058;-62
2023/01/24 02:04:39;;;;;;;21.35;9.77;;;4.20;94.60;;;;;;4972983;28;20053;-62
2023/01/24 02:07:20;;;;;;;18.27;9.65;;;4.20;94.70;;;;;;4959998;28;20041;-62
2023/01/24 02:09:49;;;;;;;18.75;8.85;;;4.10;94.70;;;;;;4974044;28;20045;-62
2023/01/24 02:12:43;;;;;;;21.75;10.40;;;4.10;94.60;;;;;;4971531;28;20035;-62
2023/01/24 02:18:03;;;;;;;18.42;9.02;;;4.10;94.50;;;;;;4971450;28;20077;-62
2023/01/24 02:20:37;;;;;;;19.15;9.95;;;4.10;94.50;;;;;;4970791;28;20132;-62
2023/01/24 02:23:36;;;;;;;20.80;9.43;;;4.10;94.40;;;;;;4979232;28;20037;-62
2023/01/24 02:26:04;;;;;;;16.95;8.63;;;4.00;94.60;;;;;;4960916;28;20121;-62
2023/01/24 02:28:31;;;;;;;16.88;9.15;;;4.00;94.60;;;;;;4975209;28;20116;-62
2023/01/24 02:30:58;;;;;;;21.58;9.90;;;4.00;94.80;;;;;;4940502;28;20030;-62
2023/01/24 02:33:24;;;;;;;18.58;9.43;;;4.10;94.70;;;;;;4962113;28;20862;-62
2023/01/24 02:35:50;;;;;;;19.65;9.20;;;4.00;94.90;;;;;;4973633;28;20030;-62
2023/01/24 02:38:28;;;;;;;18.45;9.50;;;4.10;95.00;;;;;;4971933;28;20073;-62
2023/01/24 02:41:06;;;;;;;20.63;9.85;;;4.10;94.90;;;;;;4961739;28;20042;-62
2023/01/24 02:43:36;;;;;;;18.98;9.27;;;4.10;94.90;;;;;;4956319;28;20044;-62
2023/01/24 02:46:03;;;;;;;21.25;10.52;;;4.10;94.80;;;;;;4977751;28;20041;-62
2023/01/24 02:48:29;;;;;;;21.73;9.70;;;4.10;94.70;;;;;;4954361;28;20026;-62
2023/01/24 02:53:39;;;;;;;20.90;8.90;;;4.10;94.70;;;;;;4960718;28;20113;-62
2023/01/24 02:58:52;;;;;;;;;;;4.10;94.90;;;;;;4967012;28;20069;-62
2023/01/24 03:01:19;;;;;;;16.75;8.38;;;4.00;94.90;;;;;;4952669;28;19920;-62
2023/01/24 03:03:50;;;;;;;17.30;9.48;;;4.00;94.80;;;;;;4957016;28;20034;-61
2023/01/24 03:06:17;;;;;;;21.02;9.32;;;4.00;94.80;;;;;;4950919;28;20149;-62
2023/01/24 03:08:44;;;;;;;18.10;8.57;;;3.90;94.40;;;;;;4953694;28;20714;-62
2023/01/24 03:11:18;;;;;;;17.88;8.32;;;4.00;94.50;;;;;;4972319;28;20027;-62
2023/01/24 03:35:58;;;;;;;21.67;6.95;;;3.80;94.20;;;;;;4957113;28;20031;-62
2023/01/24 03:41:12;;;;;;;15.15;7.47;;;3.80;93.90;;;;;;4970243;28;20042;-61
2023/01/24 03:43:39;;;;;;;14.32;7.28;;;3.80;94.00;;;;;;4953047;28;20116;-61
2023/01/24 03:46:06;;;;;;;16.60;7.75;;;3.80;94.10;;;;;;4950008;28;20042;-62
2023/01/24 03:49:01;;;;;;;17.60;8.38;;;3.70;93.50;;;;;;4961919;28;20038;-62
2023/01/24 03:54:18;;;;;;;13.00;6.70;;;3.70;93.60;;;;;;4957225;28;20050;-62
2023/01/24 03:56:58;;;;;;;15.10;7.10;;;3.60;93.50;;;;;;4959277;28;20573;-62
2023/01/24 03:59:24;;;;;;;15.05;7.05;;;3.70;93.70;;;;;;4951541;28;20392;-62
2023/01/24 04:01:50;;;;;;;15.75;7.88;;;3.60;93.70;;;;;;4952379;28;20045;-62
2023/01/24 04:05:12;;;;;;;12.68;6.15;;;3.70;93.80;;;;;;4970497;28;20041;-62
2023/01/24 04:07:16;;;;;;;13.38;6.85;;;3.70;93.80;;;;;;4970621;28;20069;-62
2023/01/24 04:09:42;;;;;;;14.38;7.03;;;3.80;93.80;;;;;;4956774;28;20517;-63
2023/01/24 04:12:07;;;;;;;16.30;7.15;;;3.70;93.50;;;;;;4963737;28;20756;-62
2023/01/24 04:14:33;;;;;;;15.32;5.80;;;3.70;93.30;;;;;;4978968;28;20089;-62
2023/01/24 04:17:06;;;;;;;16.15;7.03;;;3.60;93.50;;;;;;4954744;28;20030;-62
2023/01/24 04:19:41;;;;;;;15.27;7.10;;;3.60;93.60;;;;;;4975937;28;20109;-62
2023/01/24 04:22:07;;;;;;;14.02;6.90;;;3.60;93.80;;;;;;4957858;28;20041;-62
2023/01/24 04:24:34;;;;;;;12.85;5.93;;;3.70;93.80;;;;;;4955613;28;20033;-62
2023/01/24 04:27:00;;;;;;;15.40;6.75;;;3.60;94.00;;;;;;4956023;28;20042;-62
2023/01/24 04:29:34;;;;;;;16.08;6.97;;;3.70;94.20;;;;;;4955817;28;20058;-62
2023/01/24 04:32:04;;;;;;;11.38;5.80;;;3.70;94.00;;;;;;4973577;28;20065;-62
2023/01/24 04:34:50;;;;;;;12.70;6.80;;;3.70;94.00;;;;;;4975881;28;20045;-62
2023/01/24 04:37:23;;;;;;;15.85;6.43;;;3.70;94.00;;;;;;4959314;28;20031;-62
2023/01/24 04:39:50;;;;;;;11.90;6.47;;;3.60;94.00;;;;;;4963844;28;20038;-62
2023/01/24 04:42:16;;;;;;;11.77;6.38;;;3.60;94.10;;;;;;4970858;28;20053;-62
2023/01/24 04:44:43;;;;;;;16.23;7.03;;;3.60;94.30;;;;;;4954652;28;20072;-62
2023/01/24 04:47:11;;;;;;;14.50;6.88;;;3.70;93.90;;;;;;4954685;28;20565;-62
2023/01/24 04:49:36;;;;;;;16.02;7.53;;;3.70;94.10;;;;;;4973504;28;20042;-62
2023/01/24 04:52:04;;;;;;;15.70;6.85;;;3.60;94.10;;;;;;4957616;28;20507;-62
2023/01/24 04:54:43;;;;;;;13.48;6.80;;;3.60;93.60;;;;;;4963380;28;20031;-62
2023/01/24 04:57:11;;;;;;;13.32;5.90;;;3.60;93.60;;;;;;4957521;28;20039;-62
2023/01/24 04:59:37;;;;;;;15.65;7.13;;;3.60;93.70;;;;;;4976832;28;20026;-62
2023/01/24 05:02:05;;;;;;;13.45;6.50;;;3.60;93.70;;;;;;4957794;28;20085;-62
2023/01/24 05:04:40;;;;;;;11.48;6.15;;;3.60;93.60;;;;;;4954430;28;20030;-62
2023/01/24 05:07:06;;;;;;;12.10;6.72;;;3.50;93.80;;;;;;4955347;28;20065;-62
2023/01/24 05:09:34;;;;;;;15.90;7.25;;;3.50;93.90;;;;;;4972914;28;20038;-62
2023/01/24 05:12:05;;;;;;;10.88;6.22;;;3.60;93.80;;;;;;4972177;28;20086;-62
2023/01/24 05:14:30;;;;;;;14.40;6.03;;;3.60;93.90;;;;;;4971630;28;20708;-63
2023/01/24 05:16:57;;;;;;;12.23;6.93;;;3.60;93.90;;;;;;4963084;28;20151;-62
2023/01/24 05:19:23;;;;;;;9.45;5.60;;;3.60;93.70;;;;;;4974061;28;20027;-61
2023/01/24 05:21:49;;;;;;;13.73;6.28;;;3.60;93.70;;;;;;4956350;28;20027;-62
2023/01/24 05:24:15;;;;;;;11.48;5.88;;;3.60;93.70;;;;;;4960084;28;20038;-61
2023/01/24 05:26:40;;;;;;;13.20;6.47;;;3.60;93.80;;;;;;4974854;28;20418;-62
2023/01/24 05:29:08;;;;;;;14.43;6.82;;;3.60;93.20;;;;;;4955618;28;20506;-62
2023/01/24 05:31:34;;;;;;;11.93;6.50;;;3.60;93.10;;;;;;4952303;28;20094;-62
2023/01/24 05:34:02;;;;;;;12.52;6.28;;;3.60;93.20;;;;;;4955308;28;20035;-62
2023/01/24 05:36:28;;;;;;;13.25;6.63;;;3.60;93.20;;;;;;4953033;28;20034;-62
2023/01/24 05:38:55;;;;;;;12.98;6.25;;;3.60;93.50;;;;;;4960291;28;20878;-62
2023/01/24 05:41:21;;;;;;;11.55;6.43;;;3.60;93.70;;;;;;4958386;28;20039;-62
2023/01/24 05:43:50;;;;;;;14.50;6.95;;;3.60;93.60;;;;;;4961543;28;20201;-62
2023/01/24 05:46:20;;;;;;;10.68;5.15;;;3.60;93.60;;;;;;4958726;28;20038;-62
2023/01/24 05:49:00;;;;;;;9.18;5.50;;;3.60;93.70;;;;;;4963132;28;20565;-62
2023/01/24 05:51:26;;;;;;;12.07;5.95;;;3.50;93.80;;;;;;4963895;28;20038;-62
2023/01/24 05:53:53;;;;;;;10.65;5.60;;;3.50;93.90;;;;;;4953086;28;20031;-62
2023/01/24 05:56:39;;;;;;;10.98;5.68;;;3.50;93.90;;;;;;4974625;28;20034;-62
2023/01/24 05:59:05;;;;;;;12.70;6.40;;;3.50;94.00;;;;;;4974579;28;20034;-62
2023/01/24 06:01:31;;;;;;;10.05;5.25;;;3.50;94.20;;;;;;4975598;28;20030;-62
2023/01/24 06:03:57;;;;;;;13.13;6.68;;;3.50;93.80;;;;;;4974000;28;20049;-62
2023/01/24 06:06:24;;;;;;;9.23;5.80;;;3.50;93.80;;;;;;4961459;28;20115;-62
2023/01/24 06:08:51;;;;;;;11.85;5.95;;;3.50;93.80;;;;;;4958006;28;20137;-62
2023/01/24 06:11:27;;;;;;;11.32;6.22;;;3.50;93.80;;;;;;4959083;28;20053;-62
2023/01/24 06:14:20;;;;;;;9.77;5.63;;;3.50;93.80;;;;;;4963751;28;20070;-60
2023/01/24 06:16:47;;;;;;;12.02;6.88;;;3.50;93.80;;;;;;4957936;28;20041;-62
2023/01/24 06:19:14;;;;;;;10.93;5.88;;;3.50;93.60;;;;;;4959419;28;20041;-62
2023/01/24 06:21:55;;;;;;;12.25;6.65;;;3.50;93.70;;;;;;4956577;28;20037;-62
2023/01/24 06:24:26;;;;;;;8.75;5.38;;;3.50;93.60;;;;;;4955656;28;20034;-62
2023/01/24 06:27:01;;;;;;;10.35;5.80;;;3.40;93.40;;;;;;4960737;28;20125;-61
2023/01/24 06:29:27;;;;;;;9.73;5.90;;;3.40;93.70;;;;;;4970844;28;20305;-62
2023/01/24 06:32:02;;;;;;;10.00;6.07;;;3.40;93.60;;;;;;4972577;28;20038;-62
2023/01/24 06:34:50;;;;;;;11.27;5.93;;;3.40;93.60;;;;;;4971439;28;20031;-62
2023/01/24 06:37:26;;;;;;;11.07;6.00;;;3.40;93.40;;;;;;4971538;28;20026;-63
2023/01/24 06:39:53;;;;;;;9.05;5.65;;;3.50;93.40;;;;;;4976484;28;20035;-63
2023/01/24 06:42:21;;;;;;;9.80;5.60;;;3.40;93.20;;;;;;4971657;28;20050;-62
2023/01/24 06:44:47;;;;;;;9.43;6.03;;;3.40;93.20;;;;;;4973562;28;20806;-62
2023/01/24 06:47:14;;;;;;;10.90;5.90;;;3.40;93.20;;;;;;4977775;28;20041;-63
2023/01/24 06:49:40;;;;;;;10.77;6.55;;;3.40;93.00;;;;;;4974986;28;20034;-62
2023/01/24 06:52:06;;;;;;;10.32;5.90;;;3.40;93.20;;;;;;4974368;28;20038;-63
2023/01/24 06:54:33;;;;;;;9.93;5.78;;;3.40;93.00;;;;;;4971037;28;20474;-64
2023/01/24 06:56:59;;;;;;;10.60;5.82;;;3.40;93.00;;;;;;4972284;28;20619;-65
2023/01/24 06:59:25;;;;;;;9.77;5.95;;;3.40;93.00;;;;;;4975242;28;20104;-64
2023/01/24 07:01:50;;;;;;;10.85;6.68;;;3.50;93.10;;;;;;4974816;28;20876;-67
2023/01/24 07:04:17;;;;;;;10.65;6.13;;;3.40;93.00;;;;;;4969250;28;20699;-67
2023/01/24 07:06:43;;;;;;;9.35;5.70;;;3.40;92.70;;;;;;4974279;28;20026;-68
2023/01/24 07:09:08;;;;;;;9.23;5.75;;;3.40;92.50;;;;;;4976907;28;20082;-67
2023/01/24 07:11:34;;;;;;;8.85;5.95;;;3.40;92.70;;;;;;4971920;28;20138;-67
2023/01/24 07:14:01;;;;;;;10.18;5.95;;;3.40;92.30;;;;;;4973858;28;20034;-68
2023/01/24 07:16:26;;;;;;;13.13;5.95;;;3.40;92.30;;;;;;4957426;28;20033;-68
2023/01/24 07:18:53;;;;;;;14.77;5.90;;;3.40;92.40;;;;;;4971382;28;20911;-66
2023/01/24 07:21:19;;;;;;;11.50;5.88;;;3.40;92.50;;;;;;4970659;28;20046;-67
2023/01/24 07:23:46;;;;;;;8.70;4.93;;;3.40;92.70;;;;;;4969703;28;20069;-67
2023/01/24 07:26:13;;;;;;;10.90;5.43;;;3.40;92.60;;;;;;4976214;28;20096;-67
2023/01/24 07:28:39;;;;;;;9.55;6.38;;;3.40;92.60;;;;;;4971291;28;20653;-67
2023/01/24 07:31:05;;;;;;;11.15;6.32;;;3.40;92.50;;;;;;4972499;28;20037;-66
2023/01/24 07:33:31;;;;;;;10.90;5.72;;;3.40;92.00;;;;;;4976143;28;20056;-68
2023/01/24 07:35:57;;;;;;;10.50;6.15;;;3.40;92.00;;;;;;4970619;28;20159;-67
2023/01/24 07:38:23;;;;;;;12.57;5.13;;;3.40;92.10;;;;;;4971388;28;20030;-66
2023/01/24 07:40:49;;;;;;;9.73;5.30;;;3.40;92.20;;;;;;4957404;28;20038;-68
2023/01/24 07:43:15;;;;;;;13.68;6.07;;;3.30;92.10;;;;;;4973111;28;20038;-67
2023/01/24 07:45:44;;;;;;;9.48;6.20;;;3.30;91.60;;;;;;4976708;28;20725;-68
2023/01/24 07:48:10;;;;;;;10.65;5.53;;;3.30;91.70;;;;;;4969545;28;20677;-68
2023/01/24 07:50:35;;;;;;;9.48;5.38;;;3.30;92.00;;;;;;4973125;28;20050;-67
2023/01/24 07:53:02;;;;;;;11.38;6.32;;;3.30;91.90;;;;;;4975578;28;20133;-65
2023/01/24 07:55:27;;;;;;;8.98;6.28;;;3.40;92.00;;;;;;4969919;28;20034;-66
2023/01/24 07:58:02;;;;;;;10.95;6.43;;;3.40;91.70;;;;;;4968564;28;20797;-66
2023/01/24 08:00:29;;;;;;;11.07;6.10;;;3.40;91.70;;;;;;4971368;28;20754;-64
2023/01/24 08:02:55;;;;;;;10.70;6.13;;;3.40;91.40;;;;;;4970391;28;20034;-67
2023/01/24 08:05:21;;;;;;;9.90;5.95;;;3.50;91.50;;;;;;4970269;28;20038;-66
2023/01/24 08:07:47;;;;;;;10.20;5.60;;;3.50;91.60;;;;;;4977704;28;20041;-67
2023/01/24 08:10:12;;;;;;;11.45;5.80;;;3.40;91.10;;;;;;4975022;28;20103;-66
2023/01/24 08:12:38;;;;;;;8.15;5.65;;;3.40;91.30;;;;;;4970148;28;20043;-66
2023/01/24 08:15:06;;;;;;;11.52;6.03;;;3.40;91.40;;;;;;4971821;28;20039;-66
2023/01/24 08:17:32;;;;;;;11.02;5.63;;;3.40;91.40;;;;;;4970840;28;20076;-66
2023/01/24 08:19:58;;;;;;;9.60;5.28;;;3.50;91.50;;;;;;4970912;28;20450;-65
2023/01/24 08:22:24;;;;;;;10.88;5.78;;;3.50;91.50;;;;;;4976829;28;20038;-66
2023/01/24 08:24:50;;;;;;;9.10;5.63;;;3.50;91.30;;;;;;4974554;28;20054;-65
2023/01/24 08:27:16;;;;;;;10.77;5.55;;;3.60;91.20;;;;;;4972273;28;20478;-66
2023/01/24 08:29:41;;;;;;;9.90;5.75;;;3.60;91.10;;;;;;4969270;28;20038;-66
2023/01/24 08:32:07;;;;;;;11.63;6.07;;;3.70;91.00;;;;;;4970141;28;20034;-66
2023/01/24 08:34:33;;;;;;;9.10;6.07;;;3.70;91.00;;;;;;4969830;28;20031;-66
2023/01/24 08:36:59;;;;;;;8.70;5.22;;;3.70;91.00;;;;;;4972800;28;20039;-67
2023/01/24 08:39:24;;;;;;;16.42;5.45;;;3.70;90.80;;;;;;4972770;28;20049;-66
2023/01/24 08:41:50;;;;;;;9.80;5.85;;;3.80;90.70;;;;;;4966976;28;20023;-66
2023/01/24 08:44:16;;;;;;;10.30;5.43;;;3.70;90.60;;;;;;4974810;28;20387;-68
2023/01/24 08:46:42;;;;;;;10.23;5.70;;;3.70;90.80;;;;;;4970014;28;20498;-67
2023/01/24 08:49:10;;;;;;;11.00;5.97;;;3.70;90.80;;;;;;4973659;28;20042;-67
2023/01/24 08:51:36;;;;;;;10.10;5.18;;;3.80;90.80;;;;;;4978849;28;20375;-67
2023/01/24 08:54:04;;;;;;;11.63;6.18;;;3.80;90.70;;;;;;4974585;28;20041;-66
2023/01/24 08:56:30;;;;;;;11.75;5.78;;;3.80;90.60;;;;;;4975566;28;20872;-66
2023/01/24 08:58:56;;;;;;;9.95;5.43;;;3.80;90.70;;;;;;4975993;28;20125;-66
2023/01/24 09:01:21;;;;;;;9.45;5.20;;;3.90;90.90;;;;;;4981288;28;20046;-67
2023/01/24 09:03:48;;;;;;;8.65;5.47;;;3.90;90.60;;;;;;4981855;28;20036;-68
2023/01/24 09:06:14;;;;;;;10.38;6.10;;;3.90;90.50;;;;;;4979118;28;20038;-67
2023/01/24 09:08:40;;;;;;;10.68;6.30;;;3.90;90.30;;;;;;4975901;28;20523;-68
2023/01/24 09:11:06;;;;;;;11.85;5.57;;;3.90;90.00;;;;;;4977064;28;20134;-67
2023/01/24 09:13:32;;;;;;;11.52;5.72;;;3.90;90.00;;;;;;4970949;28;20710;-68
2023/01/24 09:15:58;;;;;;;8.93;5.38;;;3.90;89.90;;;;;;4979773;28;20038;-67
2023/01/24 09:18:25;;;;;;;12.05;6.15;;;3.90;90.00;;;;;;4980016;28;20521;-66
2023/01/24 09:20:50;;;;;;;11.23;5.82;;;3.90;90.00;;;;;;4977417;28;20043;-66
2023/01/24 09:23:16;;;;;;;10.35;5.95;;;3.90;90.20;;;;;;4973010;28;20146;-66
2023/01/24 09:25:50;;;;;;;10.38;5.78;;;3.90;90.30;;;;;;4973943;28;20026;-66
2023/01/24 09:28:19;;;;;;;11.05;6.03;;;4.00;90.30;;;;;;4973442;28;20808;-66
2023/01/24 09:30:46;;;;;;;9.73;5.57;;;4.00;90.50;;;;;;4968463;28;20038;-68
2023/01/24 09:33:12;;;;;;;8.63;5.35;;;4.10;90.60;;;;;;4965887;28;20030;-68
2023/01/24 09:35:38;;;;;;;11.27;5.78;;;4.10;90.60;;;;;;4971332;28;20062;-68
2023/01/24 09:38:04;;;;;;;10.43;5.95;;;4.10;90.40;;;;;;4974413;28;20038;-67
2023/01/24 09:40:42;;;;;;;11.07;6.10;;;4.20;90.30;;;;;;4976763;28;20030;-67
2023/01/24 09:43:29;;;;;;;9.75;5.82;;;4.20;90.10;;;;;;4972297;28;20569;-66
2023/01/24 09:46:10;;;;;;;10.02;5.72;;;4.30;90.20;;;;;;4972900;28;20046;-67
2023/01/24 09:48:35;;;;;;;12.10;5.85;;;4.30;89.60;;;;;;4970103;28;20782;-67
2023/01/24 09:51:06;;;;;;;13.52;6.68;;;4.20;89.30;;;;;;4969615;28;20034;-67
2023/01/24 09:53:49;;;;;;;11.38;6.00;;;4.30;89.40;;;;;;4978284;28;20042;-67
2023/01/24 09:56:30;;;;;;;10.40;6.00;;;4.30;89.80;;;;;;4978882;28;20042;-66
2023/01/24 09:59:09;;;;;;;13.98;6.35;;;4.30;89.80;;;;;;4974029;28;20085;-66
2023/01/24 10:01:38;;;;;;;12.82;6.38;;;4.40;88.80;;;;;;4977657;28;20374;-67
2023/01/24 10:04:10;;;;;;;10.98;5.90;;;4.40;89.00;;;;;;4973478;28;20062;-67
2023/01/24 10:06:39;;;;;;;12.32;6.75;;;4.40;88.50;;;;;;4977464;28;20684;-67
2023/01/24 10:09:26;;;;;;;15.57;6.20;;;4.40;88.60;;;;;;4971956;28;20038;-67
2023/01/24 10:12:03;;;;;;;11.77;6.47;;;4.50;87.40;;;;;;4970260;28;20069;-68
2023/01/24 10:14:57;;;;;;;10.85;5.93;;;4.50;87.80;;;;;;4967920;28;20034;-67
2023/01/24 10:17:47;;;;;;;11.25;6.30;;;4.50;89.00;;;;;;4970103;28;20054;-67
2023/01/24 10:20:32;;;;;;;11.32;6.28;;;4.50;88.00;;;;;;4973139;28;20027;-67
2023/01/24 10:23:19;;;;;;;12.98;6.00;;;4.50;88.70;;;;;;4971205;28;20069;-67
2023/01/24 10:26:01;;;;;;;11.00;6.35;;;4.50;88.30;;;;;;4971058;28;20038;-66
2023/01/24 10:28:31;;;;;;;14.00;6.22;;;4.50;88.20;;;;;;4978037;28;20570;-67
2023/01/24 10:31:02;;;;;;;17.33;6.40;;;4.50;87.90;;;;;;4975494;28;20042;-67
2023/01/24 10:33:32;;;;;;;15.60;6.32;;;4.60;87.00;;;;;;4977544;28;20034;-67
2023/01/24 10:36:01;;;;;;;12.13;6.18;;;4.50;87.40;;;;;;4968929;28;20138;-69
2023/01/24 10:38:28;;;;;;;11.75;5.70;;;4.50;88.60;;;;;;4974791;28;20029;-66
2023/01/24 10:41:13;;;;;;;12.15;5.65;;;4.60;89.10;;;;;;4976108;28;20797;-67
2023/01/24 10:43:39;;;;;;;14.07;6.60;;;4.60;89.30;;;;;;4978745;28;20062;-66
2023/01/24 10:46:45;;;;;;;14.07;6.13;;;4.70;88.40;;;;;;4974095;28;20523;-67
2023/01/24 10:49:20;;;;;;;17.30;6.75;;;4.80;88.30;;;;;;4973980;28;20036;-67
2023/01/24 10:52:10;;;;;;;17.98;7.25;;;4.90;88.00;;;;;;4971424;28;20038;-69
2023/01/24 10:54:52;;;;;;;13.35;6.95;;;5.00;88.00;;;;;;4975730;28;20077;-67
2023/01/24 10:57:23;;;;;;;12.82;6.22;;;5.00;88.10;;;;;;4973989;28;20093;-68
2023/01/24 10:59:49;;;;;;;15.57;6.15;;;5.00;86.40;;;;;;4972956;28;20824;-67
2023/01/24 11:02:22;;;;;;;13.00;6.43;;;5.00;86.60;;;;;;4978271;28;20497;-67
2023/01/24 11:05:02;;;;;;;13.48;6.68;;;5.00;87.20;;;;;;4974918;28;20117;-67
2023/01/24 11:07:38;;;;;;;15.68;6.70;;;5.00;87.10;;;;;;4974761;28;20088;-67
2023/01/24 11:10:21;;;;;;;15.07;7.28;;;5.00;86.70;;;;;;4976443;28;20206;-67
2023/01/24 11:12:50;;;;;;;15.07;6.68;;;4.90;86.60;;;;;;4970487;28;20050;-67
2023/01/24 11:15:33;;;;;;;15.38;7.03;;;5.00;87.30;;;;;;4972281;28;20474;-68
2023/01/24 11:18:18;;;;;;;18.00;7.10;;;5.00;87.30;;;;;;4969336;28;20041;-67
2023/01/24 11:20:44;;;;;;;14.15;7.53;;;5.10;87.60;;;;;;4973240;28;20105;-67
2023/01/24 11:23:21;;;;;;;12.15;6.53;;;5.20;87.10;;;;;;4971740;28;20628;-67
2023/01/24 11:26:01;;;;;;;19.88;7.10;;;5.20;87.40;;;;;;4972577;28;20791;-67
2023/01/24 11:28:29;;;;;;;16.90;6.47;;;5.30;87.20;;;;;;4973280;28;20462;-67
2023/01/24 11:31:17;;;;;;;15.13;7.15;;;5.20;86.90;;;;;;4976430;28;20435;-67
2023/01/24 11:33:52;;;;;;;22.88;8.13;;;5.30;86.70;;;;;;4973200;28;20033;-66
2023/01/24 11:36:40;;;;;;;18.30;8.30;;;5.30;86.00;;;;;;4973919;28;20044;-68
2023/01/24 11:39:39;;;;;;;15.77;6.82;;;5.30;86.60;;;;;;4975375;28;20154;-67
2023/01/24 11:42:50;;;;;;;21.00;8.18;;;5.30;86.60;;;;;;4973569;28;20490;-67
2023/01/24 11:45:49;;;;;;;17.50;7.78;;;5.30;87.20;;;;;;4973584;28;20136;-67
2023/01/24 11:48:41;;;;;;;16.83;7.25;;;5.30;86.30;;;;;;4973616;28;20106;-67
2023/01/24 11:51:33;;;;;;;22.80;9.35;;;5.20;86.40;;;;;;4913583;28;20047;-67
2023/01/24 11:54:14;;;;;;;16.58;8.07;;;5.20;86.50;;;;;;4959771;28;20430;-67
2023/01/24 11:56:56;;;;;;;28.40;9.27;;;5.20;87.10;;;;;;4966237;28;20729;-67
2023/01/24 11:59:38;;;;;;;25.45;7.85;;;5.20;87.70;;;;;;4970228;28;20092;-65
2023/01/24 12:02:23;;;;;;;23.15;9.35;;;5.20;86.60;;;;;;4970704;28;20042;-67
2023/01/24 12:05:25;;;;;;;23.45;9.27;;;5.10;87.40;;;;;;4967659;28;20121;-67
2023/01/24 12:08:34;;;;;;;27.15;9.13;;;5.20;87.70;;;;;;4975602;28;20039;-66
2023/01/24 12:11:22;;;;;;;28.17;11.60;;;5.20;87.50;;;;;;4970984;28;20035;-67
2023/01/24 12:14:10;;;;;;;28.85;10.60;;;5.30;87.30;;;;;;4971800;28;20117;-67
2023/01/24 12:16:50;;;;;;;27.02;10.35;;;5.30;87.90;;;;;;4971301;28;20034;-67
2023/01/24 12:19:47;;;;;;;26.15;11.82;;;5.30;88.10;;;;;;4949092;28;20043;-67
2023/01/24 12:22:18;;;;;;;29.38;10.15;;;5.30;87.90;;;;;;4970460;28;20034;-67
2023/01/24 12:24:52;;;;;;;29.70;11.23;;;5.30;87.30;;;;;;4973403;28;20502;-67
2023/01/24 12:27:23;;;;;;;28.98;10.23;;;5.30;87.50;;;;;;4975082;28;20061;-67
2023/01/24 12:30:13;;;;;;;29.27;10.70;;;5.30;87.40;;;;;;4979545;28;20159;-67
2023/01/24 12:32:49;;;;;;;34.20;11.18;;;5.30;87.80;;;;;;4979541;28;20030;-68
2023/01/24 12:35:41;;;;;;;29.23;10.50;;;5.30;86.20;;;;;;4977392;28;20034;-65
2023/01/24 12:38:20;;;;;;;29.60;10.77;;;5.30;85.80;;;;;;4974872;28;20044;-67
2023/01/24 12:40:50;;;;;;;32.47;11.07;;;5.30;86.80;;;;;;4974211;28;20045;-68
2023/01/24 12:43:33;;;;;;;35.38;11.93;;;5.30;86.70;;;;;;4977206;28;20039;-67
2023/01/24 12:46:11;;;;;;;34.55;10.98;;;5.30;85.40;;;;;;4977660;28;20069;-67
2023/01/24 12:48:45;;;;;;;34.10;10.90;;;5.20;85.10;;;;;;4975055;28;20052;-67
2023/01/24 12:51:22;;;;;;;32.25;10.52;;;5.20;84.50;;;;;;4961755;28;20030;-68
2023/01/24 12:54:06;;;;;;;35.53;11.15;;;5.00;85.60;;;;;;4977350;28;20031;-67
2023/01/24 12:56:39;;;;;;;32.63;10.50;;;5.00;87.50;;;;;;4974906;28;20061;-67
2023/01/24 12:59:10;;;;;;;41.22;12.73;;;5.00;87.40;;;;;;4975571;28;20038;-68
2023/01/24 13:01:57;;;;;;;40.00;12.30;;;5.10;87.20;;;;;;4971490;28;20046;-68
2023/01/24 13:04:39;;;;;;;39.30;12.25;;;5.10;86.80;;;;;;4978601;28;20034;-67
2023/01/24 13:07:24;;;;;;;32.17;11.98;;;5.10;87.50;;;;;;4978811;28;20045;-68
2023/01/24 13:10:37;;;;;;;44.05;13.10;;;5.10;87.50;;;;;;4974920;28;20062;-68
2023/01/24 13:13:05;;;;;;;41.92;13.52;;;5.20;88.40;;;;;;4920548;28;20063;-68
2023/01/24 13:15:47;;;;;;;42.35;12.23;;;5.20;87.30;;;;;;4979250;28;20038;-68
2023/01/24 13:18:41;;;;;;;45.33;13.02;;;5.30;86.30;;;;;;4982236;28;20041;-68
2023/01/24 13:21:18;;;;;;;39.55;12.10;;;5.30;87.10;;;;;;4972443;28;20035;-68
2023/01/24 13:24:14;;;;;;;40.42;13.05;;;5.30;87.80;;;;;;4978397;28;20038;-66
2023/01/24 13:26:54;;;;;;;44.50;13.82;;;5.30;87.70;;;;;;4977107;28;20486;-68
2023/01/24 13:29:29;;;;;;;46.00;14.77;;;5.30;87.30;;;;;;4976557;28;20081;-67
2023/01/24 13:32:05;;;;;;;49.65;14.32;;;5.30;87.60;;;;;;4977459;28;20742;-67
2023/01/24 13:34:37;;;;;;;50.10;13.38;;;5.30;88.00;;;;;;4969357;28;20038;-67
2023/01/24 13:37:04;;;;;;;50.83;14.05;;;5.30;87.30;;;;;;4972387;28;20039;-68
2023/01/24 13:39:35;;;;;;;57.00;15.27;;;5.20;87.00;;;;;;4975851;28;20038;-68
2023/01/24 13:42:23;;;;;;;45.00;12.57;;;5.20;87.20;;;;;;4972652;28;20042;-68
2023/01/24 13:44:49;;;;;;;41.90;13.30;;;5.20;87.20;;;;;;4976654;28;20851;-67
2023/01/24 13:47:15;;;;;;;48.75;13.23;;;5.20;87.90;;;;;;4977472;28;20033;-67
2023/01/24 13:49:50;;;;;;;39.35;12.32;;;5.20;87.30;;;;;;4976927;28;20490;-67
2023/01/24 13:52:31;;;;;;;36.75;13.43;;;5.20;87.50;;;;;;4974419;28;20108;-66